Time;durP1;ratioP1;P1;durP2;ratioP2;P2;SDS_P1;SDS_P2;PMS_P1;PMS_P2;Temp;Humidity;BMP_temperature;BMP_pressure;BME280_temperature;BME280_humidity;BME280_pressure;Samples;Min_cycle;Max_cycle;Signal;HPM_P1;HPM_P2
2022/03/13 00:02:05;;;;;;;27.33;12.60;;;2.80;1.00;;;;;;5072264;28;20197;-85
2022/03/13 00:04:39;;;;;;;28.23;13.20;;;2.70;1.00;;;;;;5079839;28;20192;-89
2022/03/13 00:18:32;;;;;;;25.63;13.03;;;2.30;1.00;;;;;;5032532;28;20237;-88
2022/03/13 00:21:11;;;;;;;25.87;13.17;;;2.30;1.00;;;;;;5059690;28;20223;-88
2022/03/13 00:23:46;;;;;;;26.13;12.20;;;2.30;1.00;;;;;;5059346;28;20205;-89
2022/03/13 00:26:19;;;;;;;23.20;12.07;;;2.30;1.00;;;;;;5059615;28;20204;-87
2022/03/13 00:28:59;;;;;;;22.17;11.70;;;2.30;1.00;;;;;;5035465;28;20654;-85
2022/03/13 00:37:02;;;;;;;26.70;13.10;;;2.30;1.00;;;;;;5043153;28;20276;-85
2022/03/13 00:39:34;;;;;;;25.60;12.73;;;2.30;1.00;;;;;;5047141;28;20193;-88
2022/03/13 00:42:20;;;;;;;25.60;13.07;;;2.30;1.00;;;;;;5058816;28;20204;-87
2022/03/13 00:47:38;;;;;;;25.07;11.80;;;2.20;1.00;;;;;;5058010;28;20185;-89
2022/03/13 00:50:14;;;;;;;28.57;11.90;;;2.20;1.00;;;;;;5058618;28;20203;-87
2022/03/13 00:52:51;;;;;;;23.47;11.47;;;2.20;1.00;;;;;;5079287;28;20192;-87
2022/03/13 00:55:18;;;;;;;25.57;12.00;;;2.20;1.00;;;;;;5060810;28;20216;-85
2022/03/13 00:57:50;;;;;;;27.37;11.60;;;2.20;1.00;;;;;;5078649;28;20219;-88
2022/03/13 01:03:10;;;;;;;21.23;10.57;;;2.20;1.00;;;;;;5078678;28;20178;-88
2022/03/13 01:05:50;;;;;;;25.07;11.17;;;2.20;1.00;;;;;;5078761;28;20188;-88
2022/03/13 01:08:32;;;;;;;19.00;10.17;;;2.20;1.00;;;;;;5078467;28;20264;-89
2022/03/13 01:11:00;;;;;;;24.07;10.53;;;2.20;1.00;;;;;;5054559;28;20188;-86
2022/03/13 01:13:41;;;;;;;25.13;11.50;;;2.30;1.00;;;;;;5056968;28;20196;-89
2022/03/13 01:16:24;;;;;;;21.80;10.13;;;2.30;1.00;;;;;;5078616;28;20267;-88
2022/03/13 01:22:19;;;;;;;22.63;11.50;;;2.30;1.00;;;;;;5077017;28;20232;-88
2022/03/13 01:24:53;;;;;;;20.47;9.97;;;2.40;1.00;;;;;;5050062;28;20196;-87
2022/03/13 01:27:22;;;;;;;20.30;10.37;;;2.50;1.00;;;;;;5055888;28;20197;-85
2022/03/13 01:30:01;;;;;;;20.60;10.83;;;2.50;1.00;;;;;;5053843;28;20227;-85
2022/03/13 01:32:38;;;;;;;19.63;10.63;;;2.50;1.00;;;;;;5078838;28;20202;-87
2022/03/13 01:35:37;;;;;;;23.10;11.60;;;2.60;1.00;;;;;;5077789;28;20204;-91
2022/03/13 01:40:59;;;;;;;22.30;11.03;;;2.60;1.00;;;;;;5036234;28;20685;-85
2022/03/13 01:43:30;;;;;;;24.33;12.47;;;2.60;1.00;;;;;;5051907;28;20645;-85
2022/03/13 01:46:05;;;;;;;27.17;13.00;;;2.40;1.00;;;;;;5076882;28;20195;-88
2022/03/13 01:48:39;;;;;;;27.13;12.93;;;2.20;1.00;;;;;;5062453;28;20119;-85
2022/03/13 01:54:00;;;;;;;36.87;15.40;;;1.70;1.00;;;;;;5062196;28;20232;-88
2022/03/13 01:56:28;;;;;;;30.93;14.23;;;1.40;1.00;;;;;;5075267;28;20220;-87
2022/03/13 01:59:17;;;;;;;29.57;14.23;;;1.40;1.00;;;;;;5075975;28;20200;-87
2022/03/13 02:01:46;;;;;;;27.70;13.97;;;1.30;1.00;;;;;;5076597;28;20168;-85
2022/03/13 02:04:13;;;;;;;25.43;13.63;;;1.30;1.00;;;;;;5053594;28;20200;-87
2022/03/13 02:06:45;;;;;;;31.83;13.50;;;1.30;1.00;;;;;;5053531;28;20691;-87
2022/03/13 02:09:13;;;;;;;32.60;15.67;;;1.30;1.00;;;;;;5059926;28;20292;-84
2022/03/13 02:14:36;;;;;;;30.87;14.63;;;1.30;1.00;;;;;;5075890;28;20180;-88
2022/03/13 02:17:08;;;;;;;34.27;16.33;;;1.20;1.00;;;;;;5077634;28;20207;-88
2022/03/13 02:19:56;;;;;;;33.63;15.37;;;1.20;1.00;;;;;;5052847;28;20223;-85
2022/03/13 02:22:27;;;;;;;34.27;16.33;;;1.20;1.00;;;;;;5055106;28;20287;-88
2022/03/13 02:24:55;;;;;;;36.47;15.93;;;1.10;1.00;;;;;;5066100;28;20177;-85
2022/03/13 02:27:25;;;;;;;40.80;16.87;;;1.10;1.00;;;;;;5070765;28;20197;-85
2022/03/13 02:30:04;;;;;;;38.90;17.07;;;1.10;1.00;;;;;;5075895;28;20192;-88
2022/03/13 02:32:48;;;;;;;35.47;16.23;;;1.00;1.00;;;;;;5077420;28;20196;-88
2022/03/13 02:35:18;;;;;;;32.57;14.73;;;1.00;1.00;;;;;;5060482;28;20249;-86
2022/03/13 02:37:45;;;;;;;33.87;16.23;;;1.00;1.00;;;;;;5065531;28;20181;-86
2022/03/13 02:40:21;;;;;;;35.40;15.70;;;1.00;1.00;;;;;;5071179;28;20706;-87
2022/03/13 02:42:58;;;;;;;35.10;16.37;;;0.90;1.00;;;;;;5076805;28;20176;-88
2022/03/13 02:45:34;;;;;;;36.43;17.77;;;0.90;1.00;;;;;;5077181;28;20215;-86
2022/03/13 02:48:03;;;;;;;36.43;17.30;;;0.80;1.00;;;;;;5077017;28;20192;-87
2022/03/13 02:50:40;;;;;;;37.43;15.33;;;0.80;1.00;;;;;;5075297;28;20180;-85
2022/03/13 02:53:14;;;;;;;33.67;16.67;;;0.80;1.00;;;;;;5076988;28;20267;-85
2022/03/13 02:55:43;;;;;;;34.33;15.80;;;0.80;1.00;;;;;;5065676;28;20216;-86
2022/03/13 02:58:21;;;;;;;30.23;14.67;;;0.80;1.00;;;;;;5068976;28;20180;-88
2022/03/13 03:04:10;;;;;;;33.43;14.70;;;0.80;1.00;;;;;;5076631;28;20189;-89
2022/03/13 03:07:01;;;;;;;26.23;13.93;;;0.80;1.00;;;;;;5076421;28;20200;-88
2022/03/13 03:09:37;;;;;;;31.60;13.97;;;0.90;1.00;;;;;;5076067;28;20223;-89
2022/03/13 03:12:38;;;;;;;30.43;14.60;;;0.90;1.00;;;;;;5068704;28;20184;-89
2022/03/13 03:15:06;;;;;;;30.67;14.83;;;0.90;1.00;;;;;;5052476;28;20287;-86
2022/03/13 03:17:40;;;;;;;29.93;14.30;;;0.90;1.00;;;;;;5074724;28;20212;-88
2022/03/13 03:23:33;;;;;;;28.10;14.13;;;0.90;1.00;;;;;;5066990;28;20231;-86
2022/03/13 03:26:09;;;;;;;29.83;13.20;;;1.00;1.00;;;;;;5074626;28;20177;-88
2022/03/13 03:28:47;;;;;;;30.87;14.30;;;1.00;1.00;;;;;;5076738;28;20263;-87
2022/03/13 03:43:22;;;;;;;27.33;12.43;;;1.30;1.00;;;;;;5051648;28;20658;-88
2022/03/13 03:46:04;;;;;;;30.30;13.07;;;1.30;1.00;;;;;;5047035;28;20165;-88
2022/03/13 03:48:32;;;;;;;29.07;13.90;;;1.30;1.00;;;;;;5072947;28;20545;-85
2022/03/13 03:51:12;;;;;;;33.47;14.77;;;1.40;1.00;;;;;;5075090;28;20224;-88
2022/03/13 03:53:51;;;;;;;29.67;13.40;;;1.30;1.00;;;;;;5076592;28;20200;-87
2022/03/13 03:56:24;;;;;;;29.87;13.87;;;1.30;1.00;;;;;;5076276;28;20216;-87
2022/03/13 03:59:07;;;;;;;30.87;13.90;;;1.30;1.00;;;;;;5076167;28;20207;-89
2022/03/13 04:01:50;;;;;;;35.60;15.70;;;1.30;1.00;;;;;;5076344;28;20192;-88
2022/03/13 04:04:18;;;;;;;32.70;14.67;;;1.30;1.00;;;;;;5075665;28;20195;-85
2022/03/13 04:06:53;;;;;;;29.50;12.97;;;1.20;1.00;;;;;;5063178;28;20173;-87
2022/03/13 04:15:11;;;;;;;33.87;15.77;;;1.00;1.00;;;;;;5043541;28;20236;-87
2022/03/13 04:17:48;;;;;;;32.03;16.20;;;0.90;1.00;;;;;;5052690;28;20200;-89
2022/03/13 04:20:16;;;;;;;37.43;17.13;;;0.90;1.00;;;;;;5052286;28;20197;-90
2022/03/13 04:22:50;;;;;;;31.00;14.13;;;0.70;1.00;;;;;;5058753;28;20799;-88
2022/03/13 04:25:17;;;;;;;28.47;13.30;;;0.60;1.00;;;;;;5058286;28;20269;-85
2022/03/13 04:27:51;;;;;;;36.63;15.40;;;0.50;1.00;;;;;;5038932;28;20255;-88
2022/03/13 04:30:43;;;;;;;35.17;15.50;;;0.50;1.00;;;;;;5059345;28;20211;-88
2022/03/13 04:33:28;;;;;;;31.80;15.00;;;0.40;1.00;;;;;;5057485;28;20212;-87
2022/03/13 04:36:23;;;;;;;33.90;15.03;;;0.40;1.00;;;;;;5058879;28;20200;-89
2022/03/13 04:39:03;;;;;;;27.80;13.73;;;0.40;1.00;;;;;;5056523;28;20208;-86
2022/03/13 04:44:18;;;;;;;28.37;12.97;;;0.40;1.00;;;;;;5072390;28;20184;-84
2022/03/13 04:46:57;;;;;;;24.90;11.80;;;0.50;1.00;;;;;;5075694;28;20191;-87
2022/03/13 04:49:26;;;;;;;29.87;13.30;;;0.60;1.00;;;;;;5072137;28;20192;-86
2022/03/13 04:52:19;;;;;;;25.27;12.47;;;0.60;1.00;;;;;;5065857;28;20200;-87
2022/03/13 04:54:55;;;;;;;26.57;11.67;;;0.70;1.00;;;;;;5079205;28;20193;-90
2022/03/13 04:57:22;;;;;;;25.27;12.70;;;0.80;1.00;;;;;;5077636;28;20220;-85
2022/03/13 04:59:59;;;;;;;26.57;11.70;;;0.90;1.00;;;;;;5065699;28;20172;-89
2022/03/13 05:06:05;;;;;;;24.37;10.50;;;0.90;1.00;;;;;;5064386;28;20185;-88
2022/03/13 05:09:05;;;;;;;24.80;10.83;;;1.10;1.00;;;;;;5074439;28;20189;-88
2022/03/13 05:11:56;;;;;;;21.50;10.13;;;1.20;1.00;;;;;;5076463;28;20216;-88
2022/03/13 05:14:33;;;;;;;22.37;9.93;;;1.40;1.00;;;;;;5074761;28;20196;-89
2022/03/13 05:19:53;;;;;;;22.83;10.17;;;1.80;1.00;;;;;;5060063;28;20189;-85
2022/03/13 05:22:21;;;;;;;21.60;10.50;;;1.90;1.00;;;;;;5059583;28;20274;-86
2022/03/13 05:24:54;;;;;;;21.00;9.80;;;2.00;1.00;;;;;;5061466;28;20161;-85
2022/03/13 05:27:21;;;;;;;21.17;9.87;;;2.20;1.00;;;;;;5059421;28;20203;-86
2022/03/13 05:29:59;;;;;;;23.80;10.37;;;2.30;1.00;;;;;;5063033;28;20189;-89
2022/03/13 05:32:34;;;;;;;27.03;10.10;;;2.30;1.00;;;;;;5060889;28;20160;-89
2022/03/13 05:35:01;;;;;;;25.63;10.73;;;2.40;1.00;;;;;;5058184;28;20244;-86
2022/03/13 05:37:31;;;;;;;19.70;9.77;;;2.50;1.00;;;;;;5059495;28;20266;-88
2022/03/13 05:39:58;;;;;;;22.73;10.53;;;2.60;1.00;;;;;;5055706;28;20649;-88
2022/03/13 05:42:26;;;;;;;26.70;10.93;;;2.60;1.00;;;;;;5061362;28;20559;-88
2022/03/13 05:44:53;;;;;;;21.77;10.30;;;2.70;1.00;;;;;;5061684;28;20193;-86
2022/03/13 05:47:21;;;;;;;21.23;9.97;;;2.80;1.00;;;;;;5056472;28;20203;-85
2022/03/13 05:49:49;;;;;;;20.60;9.43;;;2.90;1.00;;;;;;5058204;28;20275;-85
2022/03/13 05:52:20;;;;;;;21.87;10.47;;;3.00;1.00;;;;;;5058434;28;20188;-84
2022/03/13 05:54:48;;;;;;;19.20;9.93;;;3.00;1.00;;;;;;5061740;28;20220;-86
2022/03/13 05:57:18;;;;;;;22.93;10.63;;;3.10;1.00;;;;;;5062104;28;20625;-88
2022/03/13 05:59:45;;;;;;;23.33;11.10;;;3.20;1.00;;;;;;5059718;28;20193;-87
2022/03/13 06:02:12;;;;;;;19.20;9.23;;;3.20;1.00;;;;;;5059708;28;20197;-87
2022/03/13 06:04:52;;;;;;;20.47;9.67;;;3.40;1.00;;;;;;5070970;28;20196;-91
2022/03/13 06:07:40;;;;;;;21.20;10.57;;;4.10;1.00;;;;;;5072815;28;20179;-91
2022/03/13 06:10:17;;;;;;;20.10;11.10;;;5.30;1.00;;;;;;5075421;28;20294;-88
2022/03/13 06:12:55;;;;;;;28.20;11.83;;;6.20;1.00;;;;;;5065589;28;20701;-88
2022/03/13 06:15:38;;;;;;;22.77;10.37;;;7.10;1.00;;;;;;5026538;28;20201;-87
2022/03/13 06:18:10;;;;;;;19.80;10.87;;;7.90;1.00;;;;;;5018875;28;20227;-87
2022/03/13 06:20:38;;;;;;;21.03;11.30;;;8.60;1.00;;;;;;5025392;28;20189;-90
2022/03/13 06:23:05;;;;;;;22.70;12.13;;;9.20;1.00;;;;;;5025287;28;20220;-88
2022/03/13 06:25:44;;;;;;;22.97;11.13;;;9.70;1.00;;;;;;5029690;28;20205;-91
2022/03/13 06:31:04;;;;;;;18.43;10.17;;;10.50;1.00;;;;;;5020269;28;20188;-88
2022/03/13 06:33:34;;;;;;;23.23;12.50;;;10.70;1.00;;;;;;5022086;28;20191;-87
2022/03/13 06:36:01;;;;;;;20.37;11.03;;;10.80;1.00;;;;;;5020800;28;20206;-88
2022/03/13 06:38:34;;;;;;;23.13;11.53;;;10.70;1.00;;;;;;5019353;28;20219;-91
2022/03/13 06:41:03;;;;;;;24.60;12.03;;;10.40;1.00;;;;;;5017665;28;20178;-88
2022/03/13 06:43:30;;;;;;;21.33;11.67;;;10.30;1.00;;;;;;5018262;28;20191;-86
2022/03/13 06:45:59;;;;;;;22.73;12.37;;;10.40;1.00;;;;;;5022545;28;20535;-87
2022/03/13 06:48:31;;;;;;;21.87;11.53;;;10.50;1.00;;;;;;5018122;28;20199;-85
2022/03/13 06:50:58;;;;;;;19.87;11.67;;;10.40;1.00;;;;;;5019773;28;20251;-87
2022/03/13 06:53:31;;;;;;;21.87;12.40;;;10.30;1.00;;;;;;5017372;28;20203;-88
2022/03/13 06:55:58;;;;;;;23.07;12.10;;;10.20;1.00;;;;;;5018061;28;20287;-88
2022/03/13 06:58:26;;;;;;;23.33;12.13;;;10.40;1.00;;;;;;5016902;28;20232;-88
2022/03/13 07:00:56;;;;;;;22.43;11.73;;;10.50;1.00;;;;;;5021413;28;20707;-86
2022/03/13 07:03:23;;;;;;;21.27;12.10;;;10.70;1.00;;;;;;5020634;28;20195;-84
2022/03/13 07:05:50;;;;;;;24.00;12.00;;;11.20;1.00;;;;;;5018260;28;20659;-87
2022/03/13 07:08:17;;;;;;;22.37;11.40;;;12.00;1.00;;;;;;5018944;28;20219;-85
2022/03/13 07:10:44;;;;;;;20.43;11.17;;;12.60;1.00;;;;;;5020000;28;20200;-86
2022/03/13 07:13:18;;;;;;;21.73;10.97;;;13.10;1.00;;;;;;5013895;28;20197;-87
2022/03/13 07:16:00;;;;;;;21.67;11.80;;;13.60;1.00;;;;;;5015571;28;20183;-86
2022/03/13 07:18:27;;;;;;;22.40;10.93;;;14.20;1.00;;;;;;5012980;28;20220;-88
2022/03/13 07:20:54;;;;;;;24.80;12.43;;;14.60;1.00;;;;;;5019200;28;20251;-85
2022/03/13 07:23:29;;;;;;;20.73;10.48;;;14.80;1.00;;;;;;5020094;28;20239;-88
2022/03/13 07:26:00;;;;;;;18.38;10.85;;;15.40;1.00;;;;;;5021277;28;20210;-88
2022/03/13 07:28:29;;;;;;;24.92;11.20;;;15.70;1.00;;;;;;5021139;28;20193;-87
2022/03/13 07:31:02;;;;;;;22.77;12.63;;;15.80;1.00;;;;;;5028721;28;20242;-89
2022/03/13 07:33:31;;;;;;;20.70;11.70;;;16.10;1.00;;;;;;5059418;28;20630;-88
2022/03/13 07:35:58;;;;;;;20.55;12.35;;;16.70;1.00;;;;;;5062390;28;20250;-87
2022/03/13 07:38:26;;;;;;;32.85;16.73;;;17.10;1.00;;;;;;5064910;28;20204;-88
2022/03/13 07:40:54;;;;;;;25.85;13.27;;;17.10;1.00;;;;;;5061070;28;20581;-89
2022/03/13 07:43:26;;;;;;;21.13;12.73;;;17.30;1.00;;;;;;5059813;28;20193;-90
2022/03/13 07:45:56;;;;;;;33.40;18.20;;;17.60;1.00;;;;;;5054901;28;20208;-88
2022/03/13 07:48:25;;;;;;;27.02;15.43;;;17.70;1.00;;;;;;5060288;28;20173;-86
2022/03/13 07:51:00;;;;;;;30.40;16.65;;;17.90;1.00;;;;;;5059165;28;20211;-87
2022/03/13 07:53:28;;;;;;;21.88;12.40;;;17.90;1.00;;;;;;5059871;28;20260;-86
2022/03/13 07:56:08;;;;;;;21.60;13.27;;;17.90;1.00;;;;;;5064512;28;20192;-89
2022/03/13 07:58:42;;;;;;;27.25;12.35;;;17.80;1.00;;;;;;5071201;28;20393;-91
2022/03/13 08:01:09;;;;;;;23.98;14.80;;;17.50;1.00;;;;;;5067095;28;20262;-85
2022/03/13 08:03:45;;;;;;;23.73;14.05;;;17.50;1.00;;;;;;5062726;28;20193;-89
2022/03/13 08:06:12;;;;;;;22.65;13.32;;;17.60;1.00;;;;;;5058341;28;20185;-87
2022/03/13 08:08:39;;;;;;;22.40;13.10;;;17.50;1.00;;;;;;5067301;28;20222;-86
2022/03/13 08:11:16;;;;;;;25.45;13.75;;;17.30;1.00;;;;;;5060629;28;20270;-91
2022/03/13 08:13:44;;;;;;;23.83;13.48;;;17.50;1.00;;;;;;5064138;28;20284;-91
2022/03/13 08:16:11;;;;;;;23.50;13.73;;;17.80;1.00;;;;;;5064306;28;20173;-86
2022/03/13 08:18:42;;;;;;;22.98;14.63;;;17.90;1.00;;;;;;5065577;28;20260;-89
2022/03/13 08:21:16;;;;;;;25.73;13.60;;;18.00;1.00;;;;;;5058522;28;20200;-88
2022/03/13 08:23:43;;;;;;;21.95;13.40;;;17.80;1.00;;;;;;5061984;28;20228;-88
2022/03/13 08:26:13;;;;;;;21.98;13.82;;;17.70;1.00;;;;;;5065399;28;20208;-91
2022/03/13 08:28:41;;;;;;;22.70;14.00;;;17.70;1.00;;;;;;5065569;28;20637;-86
2022/03/13 08:31:08;;;;;;;23.60;14.18;;;17.50;1.00;;;;;;5064637;28;20221;-88
2022/03/13 08:33:43;;;;;;;24.00;13.63;;;17.50;1.00;;;;;;5062592;28;20242;-88
2022/03/13 08:36:20;;;;;;;24.90;13.55;;;17.40;1.00;;;;;;5060458;28;20235;-87
2022/03/13 08:38:47;;;;;;;22.25;13.15;;;17.40;1.00;;;;;;5058926;28;20216;-87
2022/03/13 08:41:14;;;;;;;23.25;13.98;;;17.50;1.00;;;;;;5061411;28;20199;-85
2022/03/13 08:43:41;;;;;;;25.27;16.05;;;17.50;1.00;;;;;;5058781;28;20292;-85
2022/03/13 08:46:09;;;;;;;22.17;13.52;;;17.40;1.00;;;;;;5058857;28;20204;-86
2022/03/13 08:48:36;;;;;;;26.70;14.07;;;17.20;1.00;;;;;;5061724;28;20204;-86
2022/03/13 08:51:04;;;;;;;27.52;14.80;;;17.10;1.00;;;;;;5060008;28;20215;-87
2022/03/13 08:53:33;;;;;;;43.92;20.48;;;17.40;1.00;;;;;;5058343;28;20243;-88
2022/03/13 08:56:00;;;;;;;24.42;13.05;;;17.50;1.00;;;;;;5055804;28;20786;-86
2022/03/13 08:58:27;;;;;;;28.13;14.25;;;17.60;1.00;;;;;;5058740;28;20217;-87
2022/03/13 09:00:56;;;;;;;24.30;14.90;;;17.60;1.00;;;;;;5058369;28;20201;-87
2022/03/13 09:03:26;;;;;;;26.42;15.10;;;17.60;1.00;;;;;;5056502;28;20215;-86
2022/03/13 09:05:55;;;;;;;25.08;14.40;;;17.50;1.00;;;;;;5057800;28;20284;-89
2022/03/13 09:08:22;;;;;;;18.98;12.00;;;17.40;1.00;;;;;;5057792;28;20227;-87
2022/03/13 09:10:52;;;;;;;24.15;14.82;;;17.30;1.00;;;;;;5054879;28;20596;-85
2022/03/13 09:13:20;;;;;;;24.42;13.38;;;17.20;1.00;;;;;;5056563;28;20681;-88
2022/03/13 09:15:47;;;;;;;22.98;12.30;;;17.30;1.00;;;;;;5055471;28;20203;-87
2022/03/13 09:18:15;;;;;;;23.85;13.80;;;17.50;1.00;;;;;;5059960;28;20217;-88
2022/03/13 09:20:44;;;;;;;22.52;12.88;;;17.70;1.00;;;;;;5059791;28;20197;-89
2022/03/13 09:23:11;;;;;;;22.95;13.35;;;17.80;1.00;;;;;;5056954;28;20269;-86
2022/03/13 09:25:39;;;;;;;20.10;13.18;;;18.00;1.00;;;;;;5062293;28;20223;-89
2022/03/13 09:28:09;;;;;;;21.60;13.70;;;17.90;1.00;;;;;;5058406;28;20201;-84
2022/03/13 09:30:37;;;;;;;23.45;14.50;;;17.80;1.00;;;;;;5059765;28;20200;-83
2022/03/13 09:33:09;;;;;;;22.25;13.32;;;17.80;1.00;;;;;;5061261;28;20688;-86
2022/03/13 09:35:37;;;;;;;23.48;13.70;;;18.10;1.00;;;;;;5057867;28;20241;-87
2022/03/13 09:38:04;;;;;;;20.75;13.20;;;18.10;1.00;;;;;;5065775;28;20220;-86
2022/03/13 09:40:33;;;;;;;23.60;14.20;;;17.70;1.00;;;;;;5057441;28;20292;-83
2022/03/13 09:43:01;;;;;;;29.70;14.88;;;17.70;1.00;;;;;;5058617;28;20549;-82
2022/03/13 09:45:29;;;;;;;25.88;14.55;;;17.50;1.00;;;;;;5066323;28;20236;-89
2022/03/13 09:48:00;;;;;;;26.58;15.70;;;17.50;1.00;;;;;;5060322;28;20203;-84
2022/03/13 09:50:28;;;;;;;21.30;13.45;;;17.50;1.00;;;;;;5059006;28;20663;-84
2022/03/13 09:53:04;;;;;;;23.50;14.35;;;17.70;1.00;;;;;;5063857;28;20193;-88
2022/03/13 09:55:33;;;;;;;24.73;14.20;;;17.60;1.00;;;;;;5060904;28;20248;-86
2022/03/13 09:58:00;;;;;;;25.20;14.98;;;17.40;1.00;;;;;;5062226;28;20299;-83
2022/03/13 10:00:27;;;;;;;20.10;13.18;;;17.20;1.00;;;;;;5058145;28;20665;-84
2022/03/13 10:02:56;;;;;;;21.90;12.93;;;16.70;1.00;;;;;;5058176;28;20192;-85
2022/03/13 10:05:26;;;;;;;24.87;13.40;;;16.10;1.00;;;;;;5061255;28;20227;-87
2022/03/13 10:08:00;;;;;;;18.60;11.90;;;15.60;1.00;;;;;;5060024;28;20197;-83
2022/03/13 10:10:28;;;;;;;23.17;13.13;;;15.20;1.00;;;;;;5059258;28;20197;-84
2022/03/13 10:12:56;;;;;;;19.87;11.50;;;14.80;1.00;;;;;;5060392;28;20198;-82
2022/03/13 10:15:28;;;;;;;21.93;13.67;;;14.50;1.00;;;;;;5060853;28;20197;-87
2022/03/13 10:17:57;;;;;;;22.20;13.17;;;14.20;1.00;;;;;;5059914;28;20289;-82
2022/03/13 10:20:27;;;;;;;24.73;14.13;;;13.90;1.00;;;;;;5059209;28;20199;-82
2022/03/13 10:23:10;;;;;;;22.13;12.20;;;14.00;1.00;;;;;;5060538;28;20308;-86
2022/03/13 10:25:40;;;;;;;18.70;11.63;;;14.10;1.00;;;;;;5057969;28;20196;-84
2022/03/13 10:28:22;;;;;;;25.67;13.00;;;13.90;1.00;;;;;;5060848;28;20220;-84
2022/03/13 10:31:06;;;;;;;20.77;12.10;;;13.90;1.00;;;;;;5062401;28;20196;-83
2022/03/13 10:33:55;;;;;;;18.87;11.67;;;13.80;1.00;;;;;;5060625;28;20192;-83
2022/03/13 10:36:31;;;;;;;22.20;12.03;;;13.70;1.00;;;;;;5061511;28;20183;-88
2022/03/13 10:38:59;;;;;;;20.77;12.50;;;13.50;1.00;;;;;;5063395;28;20210;-85
2022/03/13 10:41:42;;;;;;;20.83;12.37;;;13.50;1.00;;;;;;5060071;28;20222;-84
2022/03/13 10:44:14;;;;;;;19.77;10.00;;;13.60;1.00;;;;;;5059426;28;20194;-82
2022/03/13 10:46:42;;;;;;;20.93;11.10;;;13.50;1.00;;;;;;5060566;28;20231;-84
2022/03/13 10:49:37;;;;;;;20.27;10.57;;;13.50;1.00;;;;;;5060391;28;20195;-88
2022/03/13 10:52:25;;;;;;;20.23;11.10;;;13.40;1.00;;;;;;5059045;28;20267;-85
2022/03/13 10:54:53;;;;;;;20.17;10.27;;;13.40;1.00;;;;;;5062628;28;20214;-86
2022/03/13 10:57:20;;;;;;;22.10;12.13;;;13.40;1.00;;;;;;5061342;28;20199;-84
2022/03/13 11:00:08;;;;;;;16.93;10.40;;;13.50;1.00;;;;;;5058232;28;20219;-83
2022/03/13 11:02:38;;;;;;;18.47;10.60;;;13.70;1.00;;;;;;5055378;28;20188;-85
2022/03/13 11:05:07;;;;;;;18.67;10.47;;;13.60;1.00;;;;;;5057554;28;20218;-83
2022/03/13 11:07:34;;;;;;;19.93;10.17;;;13.40;1.00;;;;;;5053773;28;20196;-83
2022/03/13 11:10:02;;;;;;;17.20;10.47;;;13.30;1.00;;;;;;5055814;28;20196;-83
2022/03/13 11:12:30;;;;;;;17.47;10.07;;;13.30;1.00;;;;;;5053121;28;20202;-81
2022/03/13 11:15:00;;;;;;;19.43;11.13;;;13.20;1.00;;;;;;5056098;28;20201;-84
2022/03/13 11:17:30;;;;;;;16.10;9.10;;;13.20;1.00;;;;;;5053430;28;20653;-81
2022/03/13 11:19:58;;;;;;;17.50;11.10;;;13.10;1.00;;;;;;5054309;28;20704;-81
2022/03/13 11:22:30;;;;;;;22.07;10.90;;;13.10;1.00;;;;;;5058280;28;20222;-83
2022/03/13 11:25:03;;;;;;;20.10;11.53;;;13.00;1.00;;;;;;5057619;28;20183;-84
2022/03/13 11:27:32;;;;;;;17.37;10.53;;;13.10;1.00;;;;;;5058091;28;20177;-83
2022/03/13 11:29:59;;;;;;;19.97;10.73;;;13.10;1.00;;;;;;5063267;28;20258;-87
2022/03/13 11:32:40;;;;;;;18.00;10.53;;;13.20;1.00;;;;;;5070733;28;20249;-88
2022/03/13 11:35:31;;;;;;;18.30;10.53;;;13.10;1.00;;;;;;5081633;28;20263;-83
2022/03/13 11:38:19;;;;;;;18.93;10.63;;;13.00;1.00;;;;;;5080514;28;20213;-83
2022/03/13 11:40:47;;;;;;;20.70;11.10;;;13.00;1.00;;;;;;5074150;28;20561;-84
2022/03/13 11:43:16;;;;;;;17.63;11.13;;;13.10;1.00;;;;;;5058207;28;20194;-82
2022/03/13 11:45:49;;;;;;;19.67;10.37;;;13.10;1.00;;;;;;5059390;28;20212;-83
2022/03/13 11:48:43;;;;;;;24.27;11.27;;;13.10;1.00;;;;;;5060205;28;20560;-81
2022/03/13 11:51:20;;;;;;;22.07;12.03;;;13.00;1.00;;;;;;5058950;28;20184;-81
2022/03/13 11:53:52;;;;;;;20.80;12.30;;;13.00;1.00;;;;;;5041214;28;20216;-83
2022/03/13 11:56:27;;;;;;;20.80;11.90;;;13.10;1.00;;;;;;5037584;28;20200;-81
2022/03/13 11:58:57;;;;;;;19.57;11.57;;;13.10;1.00;;;;;;5059623;28;20207;-80
2022/03/13 12:01:35;;;;;;;19.20;10.20;;;13.20;1.00;;;;;;5059418;28;20181;-80
2022/03/13 12:04:35;;;;;;;18.43;10.07;;;13.20;1.00;;;;;;5057524;28;20226;-80
2022/03/13 12:07:24;;;;;;;17.83;11.33;;;13.20;1.00;;;;;;5014346;28;20246;-83
2022/03/13 12:09:52;;;;;;;19.83;12.03;;;13.20;1.00;;;;;;5014531;28;20238;-82
2022/03/13 12:12:20;;;;;;;20.00;11.30;;;13.20;1.00;;;;;;5040757;28;20788;-81
2022/03/13 12:14:59;;;;;;;18.80;11.03;;;13.10;1.00;;;;;;5053843;28;20660;-81
2022/03/13 12:17:29;;;;;;;22.30;12.83;;;13.00;1.00;;;;;;5036579;28;20659;-81
2022/03/13 12:19:58;;;;;;;20.07;11.13;;;12.90;1.00;;;;;;5038080;28;20225;-80
2022/03/13 12:22:30;;;;;;;22.17;13.00;;;13.00;1.00;;;;;;5041498;28;20237;-85
2022/03/13 12:25:01;;;;;;;20.20;11.83;;;13.00;1.00;;;;;;5040758;28;20247;-81
2022/03/13 12:27:28;;;;;;;19.97;12.07;;;13.10;1.00;;;;;;5054196;28;20191;-83
2022/03/13 12:29:59;;;;;;;20.27;12.00;;;13.10;1.00;;;;;;5064580;28;20201;-84
2022/03/13 12:32:37;;;;;;;24.37;12.20;;;13.10;1.00;;;;;;5061272;28;20208;-84
2022/03/13 12:35:05;;;;;;;20.00;10.90;;;13.10;1.00;;;;;;5059946;28;20192;-82
2022/03/13 12:37:34;;;;;;;22.63;11.97;;;13.10;1.00;;;;;;5060923;28;20211;-82
2022/03/13 12:40:05;;;;;;;23.67;12.33;;;13.10;1.00;;;;;;5059831;28;20222;-83
2022/03/13 12:42:37;;;;;;;25.07;12.80;;;13.10;1.00;;;;;;5063550;28;20185;-81
2022/03/13 12:45:09;;;;;;;18.40;10.03;;;13.20;1.00;;;;;;5060157;28;20191;-83
2022/03/13 12:47:39;;;;;;;22.70;12.73;;;13.20;1.00;;;;;;5061423;28;20197;-83
2022/03/13 12:50:10;;;;;;;22.37;12.73;;;13.20;1.00;;;;;;5062371;28;20195;-83
2022/03/13 12:52:39;;;;;;;19.90;10.83;;;13.20;1.00;;;;;;5057157;28;20221;-82
2022/03/13 12:55:10;;;;;;;20.60;12.07;;;13.10;1.00;;;;;;5056132;28;20242;-82
2022/03/13 12:57:39;;;;;;;22.97;12.13;;;13.00;1.00;;;;;;5057032;28;20663;-83
2022/03/13 13:00:09;;;;;;;20.77;11.27;;;13.00;1.00;;;;;;5057640;28;20578;-81
2022/03/13 13:02:36;;;;;;;21.07;10.87;;;13.00;1.00;;;;;;5058173;28;20225;-85
2022/03/13 13:05:06;;;;;;;19.43;10.73;;;13.00;1.00;;;;;;5058060;28;20184;-80
2022/03/13 13:07:36;;;;;;;28.60;13.37;;;13.00;1.00;;;;;;5057050;28;20204;-82
2022/03/13 13:10:10;;;;;;;22.40;13.03;;;13.00;1.00;;;;;;5056912;28;20204;-83
2022/03/13 13:12:38;;;;;;;22.43;13.03;;;13.10;1.00;;;;;;5054842;28;20215;-81
2022/03/13 13:15:08;;;;;;;21.23;12.30;;;13.20;1.00;;;;;;5057408;28;20203;-82
2022/03/13 13:17:35;;;;;;;20.77;12.33;;;13.30;1.00;;;;;;5055882;28;20567;-86
2022/03/13 13:20:04;;;;;;;21.87;12.73;;;13.30;1.00;;;;;;5055921;28;20223;-82
2022/03/13 13:22:32;;;;;;;18.37;10.77;;;13.30;1.00;;;;;;5058014;28;20342;-83
2022/03/13 13:25:02;;;;;;;21.17;13.13;;;13.30;1.00;;;;;;5058215;28;20198;-82
2022/03/13 13:27:45;;;;;;;23.23;12.27;;;13.20;1.00;;;;;;5058283;28;20195;-81
2022/03/13 13:30:24;;;;;;;19.57;11.50;;;13.20;1.00;;;;;;5056783;28;20195;-83
2022/03/13 13:32:56;;;;;;;21.20;12.13;;;13.20;1.00;;;;;;5060620;28;20199;-81
2022/03/13 13:35:31;;;;;;;24.37;12.40;;;13.20;1.00;;;;;;5061295;28;20699;-85
2022/03/13 13:38:07;;;;;;;20.27;12.27;;;13.20;1.00;;;;;;5065055;28;20189;-86
2022/03/13 13:40:42;;;;;;;19.80;10.90;;;13.10;1.00;;;;;;5061264;28;20280;-87
2022/03/13 13:43:14;;;;;;;23.43;12.60;;;13.10;1.00;;;;;;5062033;28;20531;-85
2022/03/13 13:45:43;;;;;;;19.43;9.90;;;13.00;1.00;;;;;;5060804;28;20185;-85
2022/03/13 13:48:28;;;;;;;20.60;11.27;;;13.00;1.00;;;;;;5061174;28;20194;-86
2022/03/13 13:51:24;;;;;;;16.53;10.67;;;13.00;1.00;;;;;;5063697;28;20186;-79
2022/03/13 13:54:02;;;;;;;19.43;11.40;;;13.00;1.00;;;;;;5060172;28;20190;-83
2022/03/13 13:56:31;;;;;;;18.50;10.87;;;12.90;1.00;;;;;;5060350;28;20187;-82
2022/03/13 13:59:15;;;;;;;19.30;11.03;;;12.90;1.00;;;;;;5057669;28;20277;-81
2022/03/13 14:01:44;;;;;;;17.77;10.67;;;12.90;1.00;;;;;;5060314;28;20181;-82
2022/03/13 14:04:16;;;;;;;18.47;10.17;;;12.80;1.00;;;;;;5060338;28;20199;-86
2022/03/13 14:06:47;;;;;;;20.37;11.50;;;12.80;1.00;;;;;;5055534;28;20189;-81
2022/03/13 14:09:14;;;;;;;17.13;10.43;;;12.80;1.00;;;;;;5054715;28;20187;-83
2022/03/13 14:11:43;;;;;;;21.47;11.63;;;12.70;1.00;;;;;;5054685;28;20285;-83
2022/03/13 14:14:11;;;;;;;20.30;11.00;;;12.70;1.00;;;;;;5056291;28;20194;-81
2022/03/13 14:16:40;;;;;;;16.53;10.57;;;12.70;1.00;;;;;;5056584;28;20714;-81
2022/03/13 14:19:07;;;;;;;20.30;9.63;;;12.70;1.00;;;;;;5055630;28;20691;-82
2022/03/13 14:21:34;;;;;;;19.87;10.73;;;12.70;1.00;;;;;;5053813;28;20194;-80